Dati Storici

Data ora Umidita' aria (%) Temperatura aria (°C) Rad globale (W/m²) Gonioanemometro (°) Tacoanemometro (m/s) Pioggia (mm)
19-10-2012 20:40 80.4 % 15.256 0.947 223.689 0.421 0
19-10-2012 20:30 79.9 % 15.379 0.999 228.707 0.337 0
19-10-2012 20:20 79.6 % 15.498 1.538 235.45 0.713 0
19-10-2012 20:10 79.4 % 15.57 1.438 216.096 1.15 0
19-10-2012 20:00 79.4 % 15.588 1.194 194.244 1.749 0
19-10-2012 19:50 79.1 % 15.513 1.31 169.378 0.506 0
19-10-2012 19:40 77.8 % 15.537 0.976 100.269 0.05 0
19-10-2012 19:30 77.5 % 15.865 1.232 240.103 0.715 0
19-10-2012 19:20 77.3 % 15.937 1.296 246.091 0.403 0
19-10-2012 19:10 77.2 % 15.927 1.066 221.082 0.719 0
19-10-2012 19:00 76.5 % 16.051 1.092 215.726 0.788 0
19-10-2012 18:50 75.7 % 16.145 1.002 176.543 0.802 0
19-10-2012 18:40 74.6 % 16.433 1.296 233.477 0.587 0
19-10-2012 18:30 74 % 16.56 2.425 222.621 1.418 0
19-10-2012 18:20 73.5 % 16.725 4.167 178.47 0.953 0
19-10-2012 18:10 72.9 % 16.846 7.687 196.077 1.16 0
19-10-2012 18:00 72 % 17.049 14.318 265.683 0.703 0
19-10-2012 17:50 71.3 % 17.191 18.442 147.164 1.405 0
19-10-2012 17:40 70.7 % 17.305 23.516 189.589 1.258 0
19-10-2012 17:30 69.5 % 17.5 37.561 197.767 1.497 0

I dati sono presentati in modo automatico a scopo informativo. In seguito a verifica i dati possono subire modifiche o essere invalidati e non riportati negli archivi definitivi.